createdAt,value
2018-09-17T00:01:23.644Z,12.87
2018-09-17T00:03:51.967Z,12.86
2018-09-17T00:06:20.283Z,12.85
2018-09-17T00:08:48.735Z,12.81
2018-09-17T00:11:17.050Z,12.76
2018-09-17T00:13:45.383Z,12.73
2018-09-17T00:16:13.874Z,12.72
2018-09-17T00:18:42.166Z,12.71
2018-09-17T00:21:10.480Z,12.67
2018-09-17T00:23:38.849Z,12.65
2018-09-17T00:26:07.189Z,12.61
2018-09-17T00:28:35.510Z,12.57
2018-09-17T00:31:03.835Z,12.54
2018-09-17T00:33:32.178Z,12.55
2018-09-17T00:36:00.475Z,12.52
2018-09-17T00:38:28.788Z,12.48
2018-09-17T00:40:57.098Z,12.48
2018-09-17T00:43:25.409Z,12.48
2018-09-17T00:45:53.727Z,12.48
2018-09-17T00:48:22.016Z,12.49
2018-09-17T00:50:50.325Z,12.51
2018-09-17T00:53:18.736Z,12.47
2018-09-17T00:55:47.038Z,12.45
2018-09-17T00:58:15.318Z,12.41
2018-09-17T01:00:43.923Z,12.38
2018-09-17T01:03:12.336Z,12.35
2018-09-17T01:05:40.623Z,12.35
2018-09-17T01:08:08.943Z,12.34
2018-09-17T01:10:37.293Z,12.29
2018-09-17T01:13:05.565Z,12.25
2018-09-17T01:15:33.874Z,12.22
2018-09-17T01:18:02.178Z,12.18
2018-09-17T01:20:30.537Z,12.15
2018-09-17T01:22:58.809Z,12.12
2018-09-17T01:25:27.082Z,12.12
2018-09-17T01:27:55.390Z,12.09
2018-09-17T01:30:30.133Z,12.05
2018-09-17T01:32:58.417Z,12.02
2018-09-17T01:35:26.717Z,12.00
2018-09-17T01:37:55.044Z,12.00
2018-09-17T01:40:23.341Z,11.97
2018-09-17T01:42:51.694Z,11.94
2018-09-17T01:45:20.010Z,11.92
2018-09-17T01:47:48.291Z,11.91
2018-09-17T01:50:16.580Z,11.91
2018-09-17T01:52:44.918Z,11.91
2018-09-17T01:55:13.227Z,11.87
2018-09-17T01:57:41.502Z,11.82
2018-09-17T02:00:09.794Z,11.78
2018-09-17T02:02:38.068Z,11.76
2018-09-17T02:05:06.545Z,11.75
2018-09-17T02:07:34.881Z,11.74
2018-09-17T02:10:03.355Z,11.76
2018-09-17T02:12:31.585Z,11.78
2018-09-17T02:14:59.865Z,11.76
2018-09-17T02:17:29.057Z,11.78
2018-09-17T02:19:57.337Z,11.80
2018-09-17T02:22:25.660Z,11.79
2018-09-17T02:24:54.143Z,11.77
2018-09-17T02:27:22.505Z,11.75
2018-09-17T02:29:57.596Z,11.76
2018-09-17T02:32:25.986Z,11.78
2018-09-17T02:34:54.330Z,11.78
2018-09-17T02:37:22.633Z,11.68
2018-09-17T02:39:51.167Z,11.64
2018-09-17T02:42:19.453Z,11.61
2018-09-17T02:44:47.747Z,11.61
2018-09-17T02:47:16.082Z,11.57
2018-09-17T02:49:44.399Z,11.55
2018-09-17T02:52:12.686Z,11.54
2018-09-17T02:54:40.969Z,11.51
2018-09-17T02:57:09.252Z,11.51
2018-09-17T02:59:37.546Z,11.50
2018-09-17T03:02:06.056Z,11.46
2018-09-17T03:04:34.353Z,11.42
2018-09-17T03:07:02.704Z,11.40
2018-09-17T03:09:31.007Z,11.37
2018-09-17T03:11:59.349Z,11.35
2018-09-17T03:14:29.402Z,11.37
2018-09-17T03:17:15.655Z,11.38
2018-09-17T03:19:44.974Z,11.38
2018-09-17T03:22:14.163Z,11.38
2018-09-17T03:24:42.511Z,11.34
2018-09-17T03:27:10.827Z,11.29
2018-09-17T03:29:39.206Z,11.27
2018-09-17T03:32:07.506Z,11.28
2018-09-17T03:34:35.769Z,11.27
2018-09-17T03:37:04.102Z,11.24
2018-09-17T03:39:32.425Z,11.22
2018-09-17T03:42:00.778Z,11.21
2018-09-17T03:44:29.091Z,11.22
2018-09-17T03:46:57.394Z,11.23
2018-09-17T03:49:25.714Z,11.24
2018-09-17T03:51:54.049Z,11.25
2018-09-17T03:54:22.307Z,11.26
2018-09-17T03:56:50.640Z,11.26
2018-09-17T03:59:18.957Z,11.22
2018-09-17T04:01:47.284Z,11.19
2018-09-17T04:04:22.833Z,11.16
2018-09-17T04:06:51.193Z,11.13
2018-09-17T04:09:19.496Z,11.15
2018-09-17T04:11:47.870Z,11.16
2018-09-17T04:14:16.195Z,11.13
2018-09-17T04:16:44.511Z,11.10
2018-09-17T04:19:12.872Z,11.09
2018-09-17T04:21:41.165Z,11.06
2018-09-17T04:24:09.472Z,11.06
2018-09-17T04:26:37.757Z,11.04
2018-09-17T04:29:06.222Z,11.01
2018-09-17T04:31:34.514Z,11.00
2018-09-17T04:34:02.855Z,11.00
2018-09-17T04:36:31.194Z,11.01
2018-09-17T04:38:59.525Z,11.03
2018-09-17T04:41:27.832Z,11.04
2018-09-17T04:43:56.155Z,11.05
2018-09-17T04:46:24.485Z,11.03
2018-09-17T04:48:52.802Z,11.00
2018-09-17T04:51:21.231Z,10.99
2018-09-17T04:53:49.561Z,10.98
2018-09-17T04:56:17.902Z,10.97
2018-09-17T04:58:46.202Z,10.95
2018-09-17T05:01:14.493Z,10.94
2018-09-17T05:03:42.781Z,10.99
2018-09-17T05:06:11.053Z,11.03
2018-09-17T05:08:39.348Z,11.07
2018-09-17T05:11:07.663Z,11.05
2018-09-17T05:13:35.996Z,11.00
2018-09-17T05:16:04.421Z,11.01
2018-09-17T05:18:32.761Z,11.04
2018-09-17T05:21:01.049Z,11.06
2018-09-17T05:23:29.354Z,11.07
2018-09-17T05:25:57.658Z,11.07
2018-09-17T05:28:25.961Z,11.09
2018-09-17T05:30:54.263Z,11.18
2018-09-17T05:33:22.537Z,11.22
2018-09-17T05:35:50.946Z,11.25
2018-09-17T05:38:19.671Z,11.28
2018-09-17T05:40:47.951Z,11.30
2018-09-17T05:43:16.257Z,11.34
2018-09-17T05:45:44.571Z,11.43
2018-09-17T05:48:12.935Z,11.52
2018-09-17T05:50:41.244Z,11.58
2018-09-17T05:53:09.644Z,11.65
2018-09-17T05:55:37.943Z,11.75
2018-09-17T05:58:06.314Z,11.82
2018-09-17T06:00:34.634Z,11.93
2018-09-17T06:03:02.910Z,12.02
2018-09-17T06:05:35.004Z,12.01
2018-09-17T06:08:03.309Z,12.14
2018-09-17T06:10:31.634Z,12.23
2018-09-17T06:12:59.917Z,12.33
2018-09-17T06:15:28.263Z,12.41
2018-09-17T06:17:56.519Z,12.51
2018-09-17T06:20:24.853Z,12.56
2018-09-17T06:22:53.190Z,12.64
2018-09-17T06:25:21.524Z,12.71
2018-09-17T06:27:49.847Z,12.76
2018-09-17T06:30:18.151Z,12.82
2018-09-17T06:32:46.445Z,12.90
2018-09-17T06:35:14.775Z,12.99
2018-09-17T06:37:49.527Z,13.09
2018-09-17T06:40:17.811Z,13.18
2018-09-17T06:42:46.150Z,13.24
2018-09-17T06:45:14.485Z,13.32
2018-09-17T06:47:42.867Z,13.38
2018-09-17T06:50:11.165Z,13.45
2018-09-17T06:52:39.733Z,13.52
2018-09-17T06:55:08.294Z,13.57
2018-09-17T06:57:36.614Z,13.64
2018-09-17T07:00:05.208Z,13.73
2018-09-17T07:02:33.545Z,13.81
2018-09-17T07:05:01.887Z,13.89
2018-09-17T07:07:30.197Z,13.99
2018-09-17T07:09:58.497Z,14.07
2018-09-17T07:12:26.777Z,14.16
2018-09-17T07:14:55.268Z,14.26
2018-09-17T07:17:23.549Z,14.33
2018-09-17T07:19:51.941Z,14.42
2018-09-17T07:22:20.258Z,14.54
2018-09-17T07:24:48.560Z,14.63
2018-09-17T07:27:16.857Z,14.73
2018-09-17T07:29:45.394Z,14.83
2018-09-17T07:32:13.697Z,14.92
2018-09-17T07:34:42.081Z,14.99
2018-09-17T07:37:10.453Z,15.07
2018-09-17T07:39:38.739Z,15.16
2018-09-17T07:42:07.131Z,15.26
2018-09-17T07:44:35.449Z,15.35
2018-09-17T07:47:03.785Z,15.44
2018-09-17T07:49:32.127Z,15.54
2018-09-17T07:52:00.919Z,15.63
2018-09-17T07:54:29.230Z,15.72
2018-09-17T07:56:57.790Z,15.80
2018-09-17T07:59:26.103Z,15.91
2018-09-17T08:01:54.455Z,16.02
2018-09-17T08:04:22.803Z,16.16
2018-09-17T08:06:51.159Z,16.32
2018-09-17T08:09:19.446Z,16.48
2018-09-17T08:11:47.807Z,16.66
2018-09-17T08:14:16.137Z,16.84
2018-09-17T08:16:44.485Z,17.00
2018-09-17T08:19:12.777Z,17.15
2018-09-17T08:21:41.078Z,17.29
2018-09-17T08:24:09.390Z,17.45
2018-09-17T08:26:37.672Z,17.59
2018-09-17T08:29:06.258Z,17.72
2018-09-17T08:31:34.613Z,17.82
2018-09-17T08:34:02.960Z,17.93
2018-09-17T08:36:31.252Z,18.00
2018-09-17T08:38:59.582Z,18.04
2018-09-17T08:41:27.861Z,18.10
2018-09-17T08:43:56.380Z,18.17
2018-09-17T08:46:24.834Z,18.32
2018-09-17T08:48:53.220Z,18.43
2018-09-17T08:51:22.286Z,18.52
2018-09-17T08:53:50.640Z,18.58
2018-09-17T08:56:22.157Z,18.61
2018-09-17T08:59:57.909Z,18.63
2018-09-17T09:03:30.641Z,18.63
2018-09-17T09:06:04.217Z,18.68
2018-09-17T09:08:32.506Z,18.71
2018-09-17T09:11:06.075Z,18.74
2018-09-17T09:13:34.401Z,18.81
2018-09-17T09:16:02.747Z,18.90
2018-09-17T09:18:31.066Z,19.02
2018-09-17T09:20:59.394Z,19.16
2018-09-17T09:23:27.685Z,19.34
2018-09-17T09:25:55.972Z,19.49
2018-09-17T09:28:24.270Z,19.64
2018-09-17T09:30:52.737Z,19.67
2018-09-17T09:33:20.993Z,19.66
2018-09-17T09:35:49.319Z,19.66
2018-09-17T09:38:17.651Z,19.64
2018-09-17T09:40:45.952Z,19.64
2018-09-17T09:43:14.270Z,19.64
2018-09-17T09:45:42.550Z,19.66
2018-09-17T09:48:10.835Z,19.78
2018-09-17T09:50:39.247Z,19.85
2018-09-17T09:53:07.543Z,19.89
2018-09-17T09:55:35.904Z,19.93
2018-09-17T09:58:04.213Z,19.99
2018-09-17T10:00:37.843Z,20.03
2018-09-17T10:03:11.649Z,20.14
2018-09-17T10:05:39.932Z,20.19
2018-09-17T10:08:08.292Z,20.28
2018-09-17T10:10:41.892Z,20.35
2018-09-17T10:13:15.618Z,20.36
2018-09-17T10:15:49.360Z,20.47
2018-09-17T10:18:22.792Z,20.49
2018-09-17T10:20:51.105Z,20.51
2018-09-17T10:23:19.415Z,20.55
2018-09-17T10:25:47.743Z,20.57
2018-09-17T10:28:16.015Z,20.56
2018-09-17T10:30:44.423Z,20.54
2018-09-17T10:33:12.761Z,20.50
2018-09-17T10:35:41.089Z,20.50
2018-09-17T10:38:09.416Z,20.50
2018-09-17T10:40:37.743Z,20.50
2018-09-17T10:43:06.203Z,20.53
2018-09-17T10:45:34.529Z,20.54
2018-09-17T10:48:02.834Z,20.55
2018-09-17T10:50:31.127Z,20.59
2018-09-17T10:52:59.422Z,20.64
2018-09-17T10:55:27.789Z,20.66
2018-09-17T10:57:56.170Z,20.70
2018-09-17T11:00:24.595Z,20.70
2018-09-17T11:02:53.336Z,20.72
2018-09-17T11:05:21.666Z,20.74
2018-09-17T11:07:49.951Z,20.74
2018-09-17T11:10:18.248Z,20.83
2018-09-17T11:12:46.547Z,20.93
2018-09-17T11:15:14.861Z,20.98
2018-09-17T11:17:43.276Z,21.09
2018-09-17T11:20:11.490Z,21.16
2018-09-17T11:22:39.785Z,21.22
2018-09-17T11:25:08.194Z,21.29
2018-09-17T11:27:36.464Z,21.35
2018-09-17T11:30:04.908Z,21.41
2018-09-17T11:32:33.583Z,21.41
2018-09-17T11:35:01.922Z,21.42
2018-09-17T11:37:30.199Z,21.42
2018-09-17T11:39:58.520Z,21.47
2018-09-17T11:42:26.863Z,21.47
2018-09-17T11:44:55.150Z,21.52
2018-09-17T11:47:23.446Z,21.51
2018-09-17T11:49:51.748Z,21.49
2018-09-17T11:52:20.120Z,21.50
2018-09-17T11:54:48.435Z,21.57
2018-09-17T11:57:16.710Z,21.57
2018-09-17T11:59:45.045Z,21.64
2018-09-17T12:02:18.960Z,21.73
2018-09-17T12:04:52.461Z,21.81
2018-09-17T12:07:52.599Z,21.88
2018-09-17T12:10:20.881Z,22.01
2018-09-17T12:12:49.174Z,22.10
2018-09-17T12:15:17.468Z,22.16
2018-09-17T12:17:45.789Z,22.24
2018-09-17T12:20:14.158Z,22.31
2018-09-17T12:22:42.502Z,22.41
2018-09-17T12:25:10.807Z,22.51
2018-09-17T12:27:39.119Z,22.52
2018-09-17T12:30:07.446Z,22.53
2018-09-17T12:32:35.776Z,22.49
2018-09-17T12:35:04.075Z,22.44
2018-09-17T12:37:32.364Z,22.45
2018-09-17T12:40:00.653Z,22.43
2018-09-17T12:42:28.949Z,22.42
2018-09-17T12:44:57.363Z,22.40
2018-09-17T12:47:25.661Z,22.43
2018-09-17T12:49:53.992Z,22.45
2018-09-17T12:52:22.279Z,22.45
2018-09-17T12:54:50.620Z,22.45
2018-09-17T12:57:19.015Z,22.43
2018-09-17T12:59:47.267Z,22.43
2018-09-17T13:02:15.689Z,22.40
2018-09-17T13:04:43.999Z,22.45
2018-09-17T13:07:12.294Z,22.51
2018-09-17T13:09:40.565Z,22.55
2018-09-17T13:12:08.857Z,22.60
2018-09-17T13:14:37.193Z,22.63
2018-09-17T13:17:05.600Z,22.63
2018-09-17T13:19:33.881Z,22.60
2018-09-17T13:22:02.221Z,22.62
2018-09-17T13:24:30.540Z,22.63
2018-09-17T13:26:58.856Z,22.62
2018-09-17T13:29:27.149Z,22.66
2018-09-17T13:31:55.480Z,22.66
2018-09-17T13:34:23.746Z,22.70
2018-09-17T13:36:52.080Z,22.77
2018-09-17T13:39:20.428Z,22.84
2018-09-17T13:41:48.751Z,22.89
2018-09-17T13:44:17.175Z,22.94
2018-09-17T13:46:45.467Z,22.97
2018-09-17T13:49:13.773Z,22.98
2018-09-17T13:51:42.122Z,23.03
2018-09-17T13:54:10.423Z,23.12
2018-09-17T13:56:38.779Z,23.10
2018-09-17T13:59:07.097Z,23.10
2018-09-17T14:01:35.434Z,23.05
2018-09-17T14:04:03.860Z,23.01
2018-09-17T14:06:32.096Z,23.03
2018-09-17T14:09:00.407Z,23.06
2018-09-17T14:11:28.767Z,23.09
2018-09-17T14:13:57.082Z,23.06
2018-09-17T14:16:30.683Z,23.05
2018-09-17T14:18:59.000Z,23.06
2018-09-17T14:21:27.309Z,23.10
2018-09-17T14:23:55.613Z,23.15
2018-09-17T14:26:24.172Z,23.09
2018-09-17T14:28:52.441Z,23.07
2018-09-17T14:31:24.915Z,23.15
2018-09-17T14:33:54.049Z,23.20
2018-09-17T14:36:22.373Z,23.16
2018-09-17T14:38:50.687Z,23.13
2018-09-17T14:41:18.985Z,23.15
2018-09-17T14:43:47.557Z,23.20
2018-09-17T14:46:15.904Z,23.25
2018-09-17T14:48:44.518Z,23.25
2018-09-17T14:51:12.821Z,23.25
2018-09-17T14:53:41.438Z,23.26
2018-09-17T14:56:09.764Z,23.25
2018-09-17T14:58:38.092Z,23.31
2018-09-17T15:01:06.431Z,23.39
2018-09-17T15:03:34.718Z,23.46
2018-09-17T15:06:03.039Z,23.44
2018-09-17T15:08:31.428Z,23.43
2018-09-17T15:10:59.718Z,23.45
2018-09-17T15:13:28.010Z,23.44
2018-09-17T15:15:58.375Z,23.40
2018-09-17T15:18:27.216Z,23.32
2018-09-17T15:20:55.846Z,23.31
2018-09-17T15:23:24.218Z,23.31
2018-09-17T15:25:52.522Z,23.36
2018-09-17T15:28:20.942Z,23.37
2018-09-17T15:30:49.265Z,23.34
2018-09-17T15:33:17.571Z,23.28
2018-09-17T15:35:45.911Z,23.26
2018-09-17T15:38:14.352Z,23.28
2018-09-17T15:40:42.660Z,23.22
2018-09-17T15:43:10.946Z,23.21
2018-09-17T15:45:39.286Z,23.21
2018-09-17T15:48:07.628Z,23.22
2018-09-17T15:50:35.958Z,23.22
2018-09-17T15:53:04.269Z,23.23
2018-09-17T15:55:32.595Z,23.24
2018-09-17T15:58:01.029Z,23.23
2018-09-17T16:00:29.399Z,23.21
2018-09-17T16:02:57.791Z,23.19
2018-09-17T16:05:26.037Z,23.22
2018-09-17T16:07:54.375Z,23.23
2018-09-17T16:10:22.688Z,23.18
2018-09-17T16:12:50.989Z,23.15
2018-09-17T16:15:19.400Z,23.15
2018-09-17T16:17:47.707Z,23.15
2018-09-17T16:20:16.171Z,23.12
2018-09-17T16:22:44.471Z,23.06
2018-09-17T16:25:12.806Z,23.03
2018-09-17T16:27:41.295Z,23.01
2018-09-17T16:30:10.974Z,22.97
2018-09-17T16:32:39.543Z,22.91
2018-09-17T16:35:07.839Z,22.86
2018-09-17T16:37:36.348Z,22.79
2018-09-17T16:40:04.715Z,22.73
2018-09-17T16:42:33.019Z,22.66
2018-09-17T16:45:01.570Z,22.60
2018-09-17T16:47:30.146Z,22.55
2018-09-17T16:49:58.469Z,22.46
2018-09-17T16:52:26.767Z,22.38
2018-09-17T16:54:55.093Z,22.30
2018-09-17T16:57:23.433Z,22.22
2018-09-17T16:59:52.129Z,22.12
2018-09-17T17:02:20.519Z,22.00
2018-09-17T17:04:48.908Z,21.86
2018-09-17T17:07:17.216Z,21.73
2018-09-17T17:09:45.553Z,21.64
2018-09-17T17:12:13.831Z,21.54
2018-09-17T17:14:42.290Z,21.42
2018-09-17T17:17:10.624Z,21.33
2018-09-17T17:19:38.975Z,21.23
2018-09-17T17:22:07.555Z,21.15
2018-09-17T17:24:36.103Z,21.13
2018-09-17T17:27:04.401Z,21.08
2018-09-17T17:29:32.733Z,20.99
2018-09-17T17:32:01.151Z,20.85
2018-09-17T17:34:29.470Z,20.69
2018-09-17T17:36:57.752Z,20.57
2018-09-17T17:39:26.129Z,20.48
2018-09-17T17:41:54.432Z,20.35
2018-09-17T17:44:23.186Z,20.27
2018-09-17T17:46:51.454Z,20.34
2018-09-17T17:49:19.819Z,20.39
2018-09-17T17:51:48.167Z,20.40
2018-09-17T17:54:16.435Z,20.38
2018-09-17T17:56:44.756Z,20.34
2018-09-17T17:59:13.097Z,20.28
2018-09-17T18:01:41.390Z,20.21
2018-09-17T18:04:10.226Z,20.14
2018-09-17T18:06:38.760Z,20.02
2018-09-17T18:09:09.397Z,19.91
2018-09-17T18:11:38.066Z,19.79
2018-09-17T18:14:06.657Z,19.69
2018-09-17T18:16:35.072Z,19.59
2018-09-17T18:19:03.678Z,19.51
2018-09-17T18:21:32.368Z,19.40
2018-09-17T18:24:00.768Z,19.29
2018-09-17T18:26:29.778Z,19.18
2018-09-17T18:28:58.111Z,19.10
2018-09-17T18:31:26.428Z,19.01
2018-09-17T18:33:54.801Z,18.90
2018-09-17T18:36:23.287Z,18.80
2018-09-17T18:38:51.691Z,18.69
2018-09-17T18:41:19.916Z,18.61
2018-09-17T18:43:48.205Z,18.52
2018-09-17T18:46:16.548Z,18.44
2018-09-17T18:48:44.881Z,18.36
2018-09-17T18:51:13.245Z,18.32
2018-09-17T18:53:41.596Z,18.30
2018-09-17T18:56:09.903Z,18.29
2018-09-17T18:58:38.216Z,18.26
2018-09-17T19:01:06.717Z,18.24
2018-09-17T19:03:35.066Z,18.21
2018-09-17T19:06:03.449Z,18.17
2018-09-17T19:08:31.764Z,18.09
2018-09-17T19:11:00.157Z,18.02
2018-09-17T19:13:28.510Z,17.91
2018-09-17T19:15:57.905Z,17.84
2018-09-17T19:18:26.267Z,17.77
2018-09-17T19:20:54.803Z,17.70
2018-09-17T19:23:28.241Z,17.64
2018-09-17T19:25:56.860Z,17.56
2018-09-17T19:28:30.508Z,17.47
2018-09-17T19:30:58.858Z,17.39
2018-09-17T19:33:27.156Z,17.29
2018-09-17T19:35:55.515Z,17.22
2018-09-17T19:38:29.120Z,17.17
2018-09-17T19:40:57.404Z,17.12
2018-09-17T19:43:25.758Z,17.10
2018-09-17T19:45:59.508Z,17.06
2018-09-17T19:48:27.880Z,17.07
2018-09-17T19:51:01.542Z,17.07
2018-09-17T19:53:29.866Z,17.08
2018-09-17T19:55:58.230Z,17.06
2018-09-17T19:58:31.734Z,17.04
2018-09-17T20:01:00.135Z,17.03
2018-09-17T20:03:28.366Z,17.00
2018-09-17T20:06:01.983Z,16.98
2018-09-17T20:08:30.278Z,16.93
2018-09-17T20:10:58.570Z,16.88
2018-09-17T20:13:26.864Z,16.80
2018-09-17T20:15:55.231Z,16.71
2018-09-17T20:18:23.539Z,16.63
2018-09-17T20:20:51.884Z,16.55
2018-09-17T20:23:20.169Z,16.46
2018-09-17T20:25:48.456Z,16.42
2018-09-17T20:28:16.782Z,16.36
2018-09-17T20:30:45.115Z,16.32
2018-09-17T20:33:13.412Z,16.28
2018-09-17T20:35:41.816Z,16.32
2018-09-17T20:38:10.107Z,16.28
2018-09-17T20:40:41.069Z,16.27
2018-09-17T20:43:09.588Z,16.24
2018-09-17T20:45:37.907Z,16.22
2018-09-17T20:48:06.296Z,16.19
2018-09-17T20:50:34.573Z,16.17
2018-09-17T20:53:03.324Z,16.15
2018-09-17T20:55:31.738Z,16.08
2018-09-17T20:58:00.012Z,15.98
2018-09-17T21:00:31.171Z,15.93
2018-09-17T21:02:59.420Z,15.88
2018-09-17T21:05:27.737Z,15.84
2018-09-17T21:07:56.051Z,15.84
2018-09-17T21:11:27.620Z,15.86
2018-09-17T21:13:55.948Z,15.83
2018-09-17T21:16:24.427Z,15.79
2018-09-17T21:18:52.746Z,15.75
2018-09-17T21:21:21.192Z,15.73
2018-09-17T21:23:49.503Z,15.70
2018-09-17T21:26:17.798Z,15.68
2018-09-17T21:28:46.154Z,15.69
2018-09-17T21:31:14.490Z,15.71
2018-09-17T21:33:42.878Z,15.72
2018-09-17T21:36:11.124Z,15.72
2018-09-17T21:38:39.407Z,15.71
2018-09-17T21:41:07.761Z,15.71
2018-09-17T21:43:36.060Z,15.65
2018-09-17T21:46:04.365Z,15.61
2018-09-17T21:48:32.629Z,15.53
2018-09-17T21:51:01.026Z,15.46
2018-09-17T21:53:29.308Z,15.40
2018-09-17T21:55:57.695Z,15.34
2018-09-17T21:58:25.933Z,15.31
2018-09-17T22:01:00.984Z,15.27
2018-09-17T22:03:30.603Z,15.20
2018-09-17T22:05:59.300Z,15.17
2018-09-17T22:08:27.784Z,15.18
2018-09-17T22:10:56.163Z,15.17
2018-09-17T22:13:24.461Z,15.17
2018-09-17T22:15:52.743Z,15.19
2018-09-17T22:18:21.201Z,15.23
2018-09-17T22:20:49.516Z,15.26
2018-09-17T22:23:17.828Z,15.27
2018-09-17T22:25:46.126Z,15.27
2018-09-17T22:28:14.445Z,15.25
2018-09-17T22:30:42.727Z,15.23
2018-09-17T22:33:11.050Z,15.23
2018-09-17T22:35:39.331Z,15.20
2018-09-17T22:38:07.853Z,15.17
2018-09-17T22:40:36.072Z,15.15
2018-09-17T22:43:04.373Z,15.08
2018-09-17T22:45:32.658Z,15.03
2018-09-17T22:48:00.966Z,14.98
2018-09-17T22:50:29.896Z,14.94
2018-09-17T22:52:58.349Z,14.88
2018-09-17T22:55:26.611Z,14.86
2018-09-17T22:57:54.910Z,14.83
2018-09-17T23:00:23.139Z,14.81
2018-09-17T23:02:51.420Z,14.79
2018-09-17T23:05:19.692Z,14.78
2018-09-17T23:07:47.989Z,14.75
2018-09-17T23:10:16.337Z,14.71
2018-09-17T23:12:44.601Z,14.66
2018-09-17T23:15:12.886Z,14.61
2018-09-17T23:17:41.302Z,14.57
2018-09-17T23:20:09.553Z,14.52
2018-09-17T23:22:37.835Z,14.50
2018-09-17T23:25:06.192Z,14.47
2018-09-17T23:27:34.471Z,14.46
2018-09-17T23:30:02.841Z,14.45
2018-09-17T23:32:31.081Z,14.43
2018-09-17T23:34:59.418Z,14.40
2018-09-17T23:37:27.684Z,14.42
2018-09-17T23:39:55.979Z,14.43
2018-09-17T23:42:24.297Z,14.44
2018-09-17T23:44:52.564Z,14.41
2018-09-17T23:47:20.840Z,14.38
2018-09-17T23:49:49.098Z,14.36
2018-09-17T23:52:17.359Z,14.31
2018-09-17T23:54:45.703Z,14.25
2018-09-17T23:57:13.991Z,14.21
2018-09-17T23:59:42.280Z,14.19
